sensor_id;sensor_type;location;lat;lon;timestamp;P1;durP1;ratioP1;P2;durP2;ratioP2
62463;SDS011;48512;48.552;9.380;2022-07-19T00:01:34;6.28;;;3.53;;
62463;SDS011;48512;48.552;9.380;2022-07-19T00:03:59;4.78;;;3.60;;
62463;SDS011;48512;48.552;9.380;2022-07-19T00:06:25;7.40;;;4.18;;
62463;SDS011;48512;48.552;9.380;2022-07-19T00:08:50;4.55;;;3.60;;
62463;SDS011;48512;48.552;9.380;2022-07-19T00:11:16;4.78;;;3.50;;
62463;SDS011;48512;48.552;9.380;2022-07-19T00:13:41;4.88;;;3.45;;
62463;SDS011;48512;48.552;9.380;2022-07-19T00:16:07;10.38;;;3.45;;
62463;SDS011;48512;48.552;9.380;2022-07-19T00:18:32;9.02;;;3.67;;
62463;SDS011;48512;48.552;9.380;2022-07-19T00:20:58;4.63;;;3.60;;
62463;SDS011;48512;48.552;9.380;2022-07-19T00:23:23;4.78;;;3.42;;
62463;SDS011;48512;48.552;9.380;2022-07-19T00:25:48;4.30;;;3.35;;
62463;SDS011;48512;48.552;9.380;2022-07-19T00:28:14;5.25;;;3.63;;
62463;SDS011;48512;48.552;9.380;2022-07-19T00:30:40;5.78;;;3.60;;
62463;SDS011;48512;48.552;9.380;2022-07-19T00:33:06;4.25;;;3.67;;
62463;SDS011;48512;48.552;9.380;2022-07-19T00:35:35;4.90;;;3.70;;
62463;SDS011;48512;48.552;9.380;2022-07-19T00:38:05;6.47;;;3.40;;
62463;SDS011;48512;48.552;9.380;2022-07-19T00:40:32;4.90;;;3.63;;
62463;SDS011;48512;48.552;9.380;2022-07-19T00:42:57;4.00;;;3.60;;
62463;SDS011;48512;48.552;9.380;2022-07-19T00:45:23;5.10;;;3.83;;
62463;SDS011;48512;48.552;9.380;2022-07-19T00:47:48;6.75;;;3.80;;
62463;SDS011;48512;48.552;9.380;2022-07-19T00:50:14;4.00;;;3.63;;
62463;SDS011;48512;48.552;9.380;2022-07-19T00:52:40;9.18;;;4.03;;
62463;SDS011;48512;48.552;9.380;2022-07-19T00:55:09;4.75;;;3.60;;
62463;SDS011;48512;48.552;9.380;2022-07-19T00:57:35;6.75;;;4.05;;
62463;SDS011;48512;48.552;9.380;2022-07-19T01:00:06;4.43;;;3.70;;
62463;SDS011;48512;48.552;9.380;2022-07-19T01:02:33;4.57;;;3.90;;
62463;SDS011;48512;48.552;9.380;2022-07-19T01:05:00;4.28;;;3.88;;
62463;SDS011;48512;48.552;9.380;2022-07-19T01:07:26;6.10;;;4.00;;
62463;SDS011;48512;48.552;9.380;2022-07-19T01:09:51;8.20;;;4.10;;
62463;SDS011;48512;48.552;9.380;2022-07-19T01:12:17;5.15;;;3.80;;
62463;SDS011;48512;48.552;9.380;2022-07-19T01:14:44;5.10;;;3.78;;
62463;SDS011;48512;48.552;9.380;2022-07-19T01:17:09;4.90;;;3.90;;
62463;SDS011;48512;48.552;9.380;2022-07-19T01:19:35;4.40;;;3.60;;
62463;SDS011;48512;48.552;9.380;2022-07-19T01:22:00;5.07;;;4.00;;
62463;SDS011;48512;48.552;9.380;2022-07-19T01:24:25;7.82;;;3.90;;
62463;SDS011;48512;48.552;9.380;2022-07-19T01:26:51;4.60;;;3.80;;
62463;SDS011;48512;48.552;9.380;2022-07-19T01:29:18;4.10;;;3.70;;
62463;SDS011;48512;48.552;9.380;2022-07-19T01:31:44;7.95;;;3.55;;
62463;SDS011;48512;48.552;9.380;2022-07-19T01:34:09;5.18;;;3.90;;
62463;SDS011;48512;48.552;9.380;2022-07-19T01:36:35;5.88;;;3.75;;
62463;SDS011;48512;48.552;9.380;2022-07-19T01:39:00;4.72;;;3.65;;
62463;SDS011;48512;48.552;9.380;2022-07-19T01:41:26;5.10;;;4.43;;
62463;SDS011;48512;48.552;9.380;2022-07-19T01:43:51;7.03;;;4.72;;
62463;SDS011;48512;48.552;9.380;2022-07-19T01:46:17;6.88;;;4.88;;
62463;SDS011;48512;48.552;9.380;2022-07-19T01:48:42;8.02;;;5.45;;
62463;SDS011;48512;48.552;9.380;2022-07-19T01:51:08;7.38;;;5.03;;
62463;SDS011;48512;48.552;9.380;2022-07-19T01:53:33;8.20;;;5.18;;
62463;SDS011;48512;48.552;9.380;2022-07-19T01:55:59;7.15;;;5.47;;
62463;SDS011;48512;48.552;9.380;2022-07-19T01:58:24;8.35;;;5.38;;
62463;SDS011;48512;48.552;9.380;2022-07-19T02:00:50;8.50;;;5.60;;
62463;SDS011;48512;48.552;9.380;2022-07-19T02:03:16;10.15;;;5.70;;
62463;SDS011;48512;48.552;9.380;2022-07-19T02:05:43;8.77;;;5.93;;
62463;SDS011;48512;48.552;9.380;2022-07-19T02:08:08;7.45;;;5.70;;
62463;SDS011;48512;48.552;9.380;2022-07-19T02:10:34;7.40;;;5.35;;
62463;SDS011;48512;48.552;9.380;2022-07-19T02:13:00;7.35;;;5.78;;
62463;SDS011;48512;48.552;9.380;2022-07-19T02:15:25;6.45;;;5.18;;
62463;SDS011;48512;48.552;9.380;2022-07-19T02:17:51;8.27;;;5.47;;
62463;SDS011;48512;48.552;9.380;2022-07-19T02:20:16;6.85;;;5.57;;
62463;SDS011;48512;48.552;9.380;2022-07-19T02:22:42;7.05;;;5.70;;
62463;SDS011;48512;48.552;9.380;2022-07-19T02:25:07;8.60;;;5.47;;
62463;SDS011;48512;48.552;9.380;2022-07-19T02:27:33;8.55;;;5.90;;
62463;SDS011;48512;48.552;9.380;2022-07-19T02:29:59;6.93;;;5.25;;
62463;SDS011;48512;48.552;9.380;2022-07-19T02:32:24;8.38;;;6.13;;
62463;SDS011;48512;48.552;9.380;2022-07-19T02:34:49;11.43;;;6.18;;
62463;SDS011;48512;48.552;9.380;2022-07-19T02:37:15;8.15;;;5.53;;
62463;SDS011;48512;48.552;9.380;2022-07-19T02:39:40;9.38;;;6.15;;
62463;SDS011;48512;48.552;9.380;2022-07-19T02:42:06;7.13;;;5.72;;
62463;SDS011;48512;48.552;9.380;2022-07-19T02:44:31;7.45;;;5.80;;
62463;SDS011;48512;48.552;9.380;2022-07-19T02:46:57;7.53;;;5.45;;
62463;SDS011;48512;48.552;9.380;2022-07-19T02:49:23;6.55;;;5.15;;
62463;SDS011;48512;48.552;9.380;2022-07-19T02:51:48;10.32;;;5.63;;
62463;SDS011;48512;48.552;9.380;2022-07-19T02:54:13;6.78;;;4.93;;
62463;SDS011;48512;48.552;9.380;2022-07-19T02:56:39;6.18;;;5.50;;
62463;SDS011;48512;48.552;9.380;2022-07-19T02:59:05;8.20;;;6.00;;
62463;SDS011;48512;48.552;9.380;2022-07-19T03:01:30;8.75;;;5.82;;
62463;SDS011;48512;48.552;9.380;2022-07-19T03:03:56;5.95;;;5.28;;
62463;SDS011;48512;48.552;9.380;2022-07-19T03:06:22;5.93;;;5.30;;
62463;SDS011;48512;48.552;9.380;2022-07-19T03:08:47;15.77;;;5.72;;
62463;SDS011;48512;48.552;9.380;2022-07-19T03:11:13;8.32;;;5.95;;
62463;SDS011;48512;48.552;9.380;2022-07-19T03:13:39;7.72;;;5.45;;
62463;SDS011;48512;48.552;9.380;2022-07-19T03:16:04;8.30;;;5.10;;
62463;SDS011;48512;48.552;9.380;2022-07-19T03:18:30;8.68;;;5.63;;
62463;SDS011;48512;48.552;9.380;2022-07-19T03:20:56;11.02;;;5.43;;
62463;SDS011;48512;48.552;9.380;2022-07-19T03:23:23;9.75;;;5.55;;
62463;SDS011;48512;48.552;9.380;2022-07-19T03:25:52;6.95;;;5.43;;
62463;SDS011;48512;48.552;9.380;2022-07-19T03:28:17;10.30;;;5.43;;
62463;SDS011;48512;48.552;9.380;2022-07-19T03:30:43;7.40;;;5.60;;
62463;SDS011;48512;48.552;9.380;2022-07-19T03:33:09;9.63;;;5.50;;
62463;SDS011;48512;48.552;9.380;2022-07-19T03:35:35;8.18;;;5.05;;
62463;SDS011;48512;48.552;9.380;2022-07-19T03:38:01;8.23;;;5.20;;
62463;SDS011;48512;48.552;9.380;2022-07-19T03:40:26;8.93;;;5.20;;
62463;SDS011;48512;48.552;9.380;2022-07-19T03:42:52;9.88;;;5.13;;
62463;SDS011;48512;48.552;9.380;2022-07-19T03:45:17;9.25;;;5.30;;
62463;SDS011;48512;48.552;9.380;2022-07-19T03:47:43;16.38;;;9.90;;
62463;SDS011;48512;48.552;9.380;2022-07-19T03:50:08;10.95;;;6.18;;
62463;SDS011;48512;48.552;9.380;2022-07-19T03:52:34;8.20;;;5.35;;
62463;SDS011;48512;48.552;9.380;2022-07-19T03:54:59;8.10;;;5.57;;
62463;SDS011;48512;48.552;9.380;2022-07-19T03:57:24;8.57;;;5.63;;
62463;SDS011;48512;48.552;9.380;2022-07-19T03:59:50;9.18;;;6.20;;
62463;SDS011;48512;48.552;9.380;2022-07-19T04:02:15;9.73;;;5.53;;
62463;SDS011;48512;48.552;9.380;2022-07-19T04:04:41;7.47;;;5.45;;
62463;SDS011;48512;48.552;9.380;2022-07-19T04:07:06;8.18;;;5.20;;
62463;SDS011;48512;48.552;9.380;2022-07-19T04:09:31;7.40;;;5.70;;
62463;SDS011;48512;48.552;9.380;2022-07-19T04:11:57;7.85;;;5.43;;
62463;SDS011;48512;48.552;9.380;2022-07-19T04:14:22;10.00;;;5.95;;
62463;SDS011;48512;48.552;9.380;2022-07-19T04:16:47;8.60;;;5.85;;
62463;SDS011;48512;48.552;9.380;2022-07-19T04:19:13;7.93;;;5.93;;
62463;SDS011;48512;48.552;9.380;2022-07-19T04:21:38;8.93;;;6.25;;
62463;SDS011;48512;48.552;9.380;2022-07-19T04:24:04;8.25;;;6.18;;
62463;SDS011;48512;48.552;9.380;2022-07-19T04:26:29;10.32;;;6.20;;
62463;SDS011;48512;48.552;9.380;2022-07-19T04:28:55;8.18;;;5.78;;
62463;SDS011;48512;48.552;9.380;2022-07-19T04:31:20;13.88;;;6.75;;
62463;SDS011;48512;48.552;9.380;2022-07-19T04:33:45;12.80;;;6.43;;
62463;SDS011;48512;48.552;9.380;2022-07-19T04:36:11;10.60;;;6.50;;
62463;SDS011;48512;48.552;9.380;2022-07-19T04:38:36;13.40;;;7.70;;
62463;SDS011;48512;48.552;9.380;2022-07-19T04:41:01;17.52;;;9.48;;
62463;SDS011;48512;48.552;9.380;2022-07-19T04:43:27;10.43;;;6.68;;
62463;SDS011;48512;48.552;9.380;2022-07-19T04:45:52;11.75;;;7.13;;
62463;SDS011;48512;48.552;9.380;2022-07-19T04:48:18;8.88;;;6.82;;
62463;SDS011;48512;48.552;9.380;2022-07-19T04:50:43;10.07;;;6.65;;
62463;SDS011;48512;48.552;9.380;2022-07-19T04:53:09;14.75;;;6.45;;
62463;SDS011;48512;48.552;9.380;2022-07-19T04:55:36;10.05;;;6.43;;
62463;SDS011;48512;48.552;9.380;2022-07-19T04:58:02;12.43;;;7.60;;
62463;SDS011;48512;48.552;9.380;2022-07-19T05:00:28;9.98;;;6.90;;
62463;SDS011;48512;48.552;9.380;2022-07-19T05:02:53;19.83;;;7.68;;
62463;SDS011;48512;48.552;9.380;2022-07-19T05:05:20;20.27;;;8.10;;
62463;SDS011;48512;48.552;9.380;2022-07-19T05:07:45;32.33;;;9.98;;
62463;SDS011;48512;48.552;9.380;2022-07-19T05:10:11;29.27;;;10.68;;
62463;SDS011;48512;48.552;9.380;2022-07-19T05:12:37;17.45;;;8.98;;
62463;SDS011;48512;48.552;9.380;2022-07-19T05:15:04;16.65;;;7.53;;
62463;SDS011;48512;48.552;9.380;2022-07-19T05:17:30;15.98;;;6.93;;
62463;SDS011;48512;48.552;9.380;2022-07-19T05:19:56;12.90;;;7.40;;
62463;SDS011;48512;48.552;9.380;2022-07-19T05:22:21;17.48;;;7.97;;
62463;SDS011;48512;48.552;9.380;2022-07-19T05:24:49;14.23;;;7.35;;
62463;SDS011;48512;48.552;9.380;2022-07-19T05:27:15;13.10;;;6.43;;
62463;SDS011;48512;48.552;9.380;2022-07-19T05:29:40;11.38;;;7.13;;
62463;SDS011;48512;48.552;9.380;2022-07-19T05:32:06;11.35;;;6.72;;
62463;SDS011;48512;48.552;9.380;2022-07-19T05:34:31;19.85;;;8.40;;
62463;SDS011;48512;48.552;9.380;2022-07-19T05:36:57;19.77;;;8.68;;
62463;SDS011;48512;48.552;9.380;2022-07-19T05:39:22;19.27;;;8.40;;
62463;SDS011;48512;48.552;9.380;2022-07-19T05:41:47;17.17;;;8.43;;
62463;SDS011;48512;48.552;9.380;2022-07-19T05:44:13;16.95;;;7.93;;
62463;SDS011;48512;48.552;9.380;2022-07-19T05:46:38;19.42;;;7.80;;
62463;SDS011;48512;48.552;9.380;2022-07-19T05:49:06;20.38;;;9.90;;
62463;SDS011;48512;48.552;9.380;2022-07-19T05:51:33;21.63;;;9.82;;
62463;SDS011;48512;48.552;9.380;2022-07-19T05:53:59;10.20;;;6.93;;
62463;SDS011;48512;48.552;9.380;2022-07-19T05:56:26;13.48;;;6.85;;
62463;SDS011;48512;48.552;9.380;2022-07-19T05:58:51;11.65;;;7.20;;
62463;SDS011;48512;48.552;9.380;2022-07-19T06:01:17;9.07;;;6.32;;
62463;SDS011;48512;48.552;9.380;2022-07-19T06:06:16;9.40;;;6.65;;
62463;SDS011;48512;48.552;9.380;2022-07-19T06:08:42;8.02;;;6.82;;
62463;SDS011;48512;48.552;9.380;2022-07-19T06:11:07;10.85;;;6.57;;
62463;SDS011;48512;48.552;9.380;2022-07-19T06:13:33;12.27;;;7.25;;
62463;SDS011;48512;48.552;9.380;2022-07-19T06:15:59;10.85;;;6.47;;
62463;SDS011;48512;48.552;9.380;2022-07-19T06:18:24;12.70;;;7.53;;
62463;SDS011;48512;48.552;9.380;2022-07-19T06:20:49;9.48;;;6.22;;
62463;SDS011;48512;48.552;9.380;2022-07-19T06:23:15;9.27;;;6.90;;
62463;SDS011;48512;48.552;9.380;2022-07-19T06:25:40;10.27;;;6.97;;
62463;SDS011;48512;48.552;9.380;2022-07-19T06:28:05;8.45;;;6.38;;
62463;SDS011;48512;48.552;9.380;2022-07-19T06:30:31;7.85;;;6.40;;
62463;SDS011;48512;48.552;9.380;2022-07-19T06:32:56;9.88;;;6.28;;
62463;SDS011;48512;48.552;9.380;2022-07-19T06:35:22;8.48;;;6.78;;
62463;SDS011;48512;48.552;9.380;2022-07-19T06:37:47;9.32;;;6.45;;
62463;SDS011;48512;48.552;9.380;2022-07-19T06:40:13;9.55;;;6.68;;
62463;SDS011;48512;48.552;9.380;2022-07-19T06:42:38;9.25;;;6.43;;
62463;SDS011;48512;48.552;9.380;2022-07-19T06:45:04;8.35;;;6.78;;
62463;SDS011;48512;48.552;9.380;2022-07-19T06:47:30;12.82;;;7.05;;
62463;SDS011;48512;48.552;9.380;2022-07-19T06:49:57;10.80;;;6.85;;
62463;SDS011;48512;48.552;9.380;2022-07-19T06:52:23;10.55;;;6.85;;
62463;SDS011;48512;48.552;9.380;2022-07-19T06:54:49;11.07;;;6.13;;
62463;SDS011;48512;48.552;9.380;2022-07-19T06:57:14;9.13;;;6.68;;
62463;SDS011;48512;48.552;9.380;2022-07-19T06:59:39;11.10;;;7.50;;
62463;SDS011;48512;48.552;9.380;2022-07-19T07:02:05;9.60;;;6.85;;
62463;SDS011;48512;48.552;9.380;2022-07-19T07:04:30;8.85;;;6.72;;
62463;SDS011;48512;48.552;9.380;2022-07-19T07:06:56;10.38;;;6.88;;
62463;SDS011;48512;48.552;9.380;2022-07-19T07:09:22;8.88;;;6.53;;
62463;SDS011;48512;48.552;9.380;2022-07-19T07:11:48;10.65;;;6.57;;
62463;SDS011;48512;48.552;9.380;2022-07-19T07:14:13;7.70;;;6.90;;
62463;SDS011;48512;48.552;9.380;2022-07-19T07:16:38;10.65;;;6.68;;
62463;SDS011;48512;48.552;9.380;2022-07-19T07:19:04;11.30;;;7.03;;
62463;SDS011;48512;48.552;9.380;2022-07-19T07:21:30;7.55;;;6.28;;
62463;SDS011;48512;48.552;9.380;2022-07-19T07:23:58;14.45;;;6.95;;
62463;SDS011;48512;48.552;9.380;2022-07-19T07:26:23;8.73;;;7.00;;
62463;SDS011;48512;48.552;9.380;2022-07-19T07:28:49;7.93;;;6.65;;
62463;SDS011;48512;48.552;9.380;2022-07-19T07:31:14;9.27;;;6.78;;
62463;SDS011;48512;48.552;9.380;2022-07-19T07:33:40;11.30;;;7.18;;
62463;SDS011;48512;48.552;9.380;2022-07-19T07:36:05;11.50;;;6.50;;
62463;SDS011;48512;48.552;9.380;2022-07-19T07:38:31;10.98;;;6.80;;
62463;SDS011;48512;48.552;9.380;2022-07-19T07:40:56;10.68;;;7.10;;
62463;SDS011;48512;48.552;9.380;2022-07-19T07:43:21;9.45;;;6.45;;
62463;SDS011;48512;48.552;9.380;2022-07-19T07:45:47;9.95;;;6.45;;
62463;SDS011;48512;48.552;9.380;2022-07-19T07:48:13;10.45;;;6.97;;
62463;SDS011;48512;48.552;9.380;2022-07-19T07:50:39;11.13;;;6.82;;
62463;SDS011;48512;48.552;9.380;2022-07-19T07:53:04;10.52;;;5.75;;
62463;SDS011;48512;48.552;9.380;2022-07-19T07:55:30;6.35;;;4.60;;
62463;SDS011;48512;48.552;9.380;2022-07-19T07:57:55;8.18;;;3.80;;
62463;SDS011;48512;48.552;9.380;2022-07-19T08:00:21;5.30;;;2.92;;
62463;SDS011;48512;48.552;9.380;2022-07-19T08:02:47;4.50;;;3.17;;
62463;SDS011;48512;48.552;9.380;2022-07-19T08:05:14;4.47;;;2.92;;
62463;SDS011;48512;48.552;9.380;2022-07-19T08:07:40;7.28;;;3.70;;
62463;SDS011;48512;48.552;9.380;2022-07-19T08:10:06;5.40;;;3.42;;
62463;SDS011;48512;48.552;9.380;2022-07-19T08:12:33;9.32;;;3.70;;
62463;SDS011;48512;48.552;9.380;2022-07-19T08:14:59;13.85;;;4.70;;
62463;SDS011;48512;48.552;9.380;2022-07-19T08:17:24;7.97;;;3.58;;
62463;SDS011;48512;48.552;9.380;2022-07-19T08:19:50;7.35;;;3.42;;
62463;SDS011;48512;48.552;9.380;2022-07-19T08:22:16;5.57;;;3.97;;
62463;SDS011;48512;48.552;9.380;2022-07-19T08:24:43;4.87;;;3.63;;
62463;SDS011;48512;48.552;9.380;2022-07-19T08:27:09;5.57;;;3.80;;
62463;SDS011;48512;48.552;9.380;2022-07-19T08:29:35;6.88;;;3.90;;
62463;SDS011;48512;48.552;9.380;2022-07-19T08:32:00;6.40;;;3.80;;
62463;SDS011;48512;48.552;9.380;2022-07-19T08:34:26;7.18;;;3.58;;
62463;SDS011;48512;48.552;9.380;2022-07-19T08:36:51;5.55;;;3.65;;
62463;SDS011;48512;48.552;9.380;2022-07-19T08:39:17;7.63;;;3.65;;
62463;SDS011;48512;48.552;9.380;2022-07-19T08:41:43;5.40;;;3.58;;
62463;SDS011;48512;48.552;9.380;2022-07-19T08:44:10;5.45;;;3.25;;
62463;SDS011;48512;48.552;9.380;2022-07-19T08:46:35;7.22;;;3.70;;
62463;SDS011;48512;48.552;9.380;2022-07-19T08:49:01;8.70;;;3.78;;
62463;SDS011;48512;48.552;9.380;2022-07-19T08:51:27;8.20;;;3.63;;
62463;SDS011;48512;48.552;9.380;2022-07-19T08:53:53;10.68;;;3.15;;
62463;SDS011;48512;48.552;9.380;2022-07-19T08:56:19;5.38;;;3.75;;
62463;SDS011;48512;48.552;9.380;2022-07-19T08:59:03;6.50;;;3.65;;
62463;SDS011;48512;48.552;9.380;2022-07-19T09:01:29;6.03;;;3.72;;
62463;SDS011;48512;48.552;9.380;2022-07-19T09:06:37;6.45;;;3.50;;
62463;SDS011;48512;48.552;9.380;2022-07-19T09:09:07;10.30;;;3.80;;
62463;SDS011;48512;48.552;9.380;2022-07-19T09:11:34;6.75;;;3.67;;
62463;SDS011;48512;48.552;9.380;2022-07-19T09:14:04;9.40;;;4.07;;
62463;SDS011;48512;48.552;9.380;2022-07-19T09:16:49;11.38;;;3.80;;
62463;SDS011;48512;48.552;9.380;2022-07-19T09:19:22;5.55;;;3.33;;
62463;SDS011;48512;48.552;9.380;2022-07-19T09:24:29;6.55;;;3.60;;
62463;SDS011;48512;48.552;9.380;2022-07-19T09:27:04;10.18;;;3.72;;
62463;SDS011;48512;48.552;9.380;2022-07-19T09:29:30;6.20;;;3.75;;
62463;SDS011;48512;48.552;9.380;2022-07-19T09:35:10;7.78;;;3.85;;
62463;SDS011;48512;48.552;9.380;2022-07-19T09:37:21;8.38;;;3.70;;
62463;SDS011;48512;48.552;9.380;2022-07-19T09:39:55;7.60;;;3.53;;
62463;SDS011;48512;48.552;9.380;2022-07-19T09:42:23;6.80;;;4.07;;
62463;SDS011;48512;48.552;9.380;2022-07-19T09:44:59;3.92;;;3.50;;
62463;SDS011;48512;48.552;9.380;2022-07-19T09:47:33;11.18;;;3.90;;
62463;SDS011;48512;48.552;9.380;2022-07-19T09:50:02;13.13;;;4.32;;
62463;SDS011;48512;48.552;9.380;2022-07-19T09:52:30;5.85;;;3.50;;
62463;SDS011;48512;48.552;9.380;2022-07-19T09:54:55;8.85;;;3.80;;
62463;SDS011;48512;48.552;9.380;2022-07-19T09:57:23;7.10;;;3.97;;
62463;SDS011;48512;48.552;9.380;2022-07-19T09:59:50;8.38;;;3.67;;
62463;SDS011;48512;48.552;9.380;2022-07-19T10:02:19;10.98;;;4.05;;
62463;SDS011;48512;48.552;9.380;2022-07-19T10:04:47;7.95;;;4.00;;
62463;SDS011;48512;48.552;9.380;2022-07-19T10:07:13;6.65;;;4.07;;
62463;SDS011;48512;48.552;9.380;2022-07-19T10:09:41;5.43;;;4.07;;
62463;SDS011;48512;48.552;9.380;2022-07-19T10:12:08;8.32;;;3.83;;
62463;SDS011;48512;48.552;9.380;2022-07-19T10:14:34;6.28;;;4.22;;
62463;SDS011;48512;48.552;9.380;2022-07-19T10:17:02;8.63;;;3.83;;
62463;SDS011;48512;48.552;9.380;2022-07-19T10:22:25;7.45;;;3.95;;
62463;SDS011;48512;48.552;9.380;2022-07-19T10:27:18;10.95;;;4.43;;
62463;SDS011;48512;48.552;9.380;2022-07-19T10:29:50;5.68;;;4.15;;
62463;SDS011;48512;48.552;9.380;2022-07-19T10:32:16;7.85;;;4.63;;
62463;SDS011;48512;48.552;9.380;2022-07-19T10:34:42;8.13;;;3.83;;
62463;SDS011;48512;48.552;9.380;2022-07-19T10:37:11;8.02;;;4.30;;
62463;SDS011;48512;48.552;9.380;2022-07-19T10:39:37;8.98;;;4.15;;
62463;SDS011;48512;48.552;9.380;2022-07-19T10:50:03;5.93;;;3.97;;
62463;SDS011;48512;48.552;9.380;2022-07-19T10:52:31;6.07;;;3.95;;
62463;SDS011;48512;48.552;9.380;2022-07-19T11:00:28;6.35;;;4.20;;
62463;SDS011;48512;48.552;9.380;2022-07-19T11:05:49;7.40;;;3.88;;
62463;SDS011;48512;48.552;9.380;2022-07-19T11:08:15;13.70;;;4.57;;
62463;SDS011;48512;48.552;9.380;2022-07-19T11:10:41;10.95;;;4.25;;
62463;SDS011;48512;48.552;9.380;2022-07-19T11:13:07;12.57;;;4.43;;
62463;SDS011;48512;48.552;9.380;2022-07-19T11:15:33;7.63;;;4.03;;
62463;SDS011;48512;48.552;9.380;2022-07-19T11:18:00;9.40;;;4.78;;
62463;SDS011;48512;48.552;9.380;2022-07-19T11:20:35;6.72;;;3.67;;
62463;SDS011;48512;48.552;9.380;2022-07-19T11:23:02;5.85;;;4.03;;
62463;SDS011;48512;48.552;9.380;2022-07-19T11:25:30;8.90;;;3.88;;
62463;SDS011;48512;48.552;9.380;2022-07-19T11:27:57;6.57;;;3.60;;
62463;SDS011;48512;48.552;9.380;2022-07-19T11:30:23;10.52;;;4.20;;
62463;SDS011;48512;48.552;9.380;2022-07-19T11:32:50;9.27;;;3.33;;
62463;SDS011;48512;48.552;9.380;2022-07-19T11:35:17;6.30;;;3.55;;
62463;SDS011;48512;48.552;9.380;2022-07-19T11:37:43;7.10;;;3.80;;
62463;SDS011;48512;48.552;9.380;2022-07-19T11:40:09;9.05;;;3.28;;
62463;SDS011;48512;48.552;9.380;2022-07-19T11:42:37;7.33;;;3.63;;
62463;SDS011;48512;48.552;9.380;2022-07-19T11:45:17;12.88;;;3.40;;
62463;SDS011;48512;48.552;9.380;2022-07-19T11:47:47;6.53;;;3.13;;
62463;SDS011;48512;48.552;9.380;2022-07-19T11:50:15;8.15;;;3.45;;
62463;SDS011;48512;48.552;9.380;2022-07-19T11:52:42;4.97;;;3.50;;
62463;SDS011;48512;48.552;9.380;2022-07-19T11:55:08;8.15;;;4.03;;
62463;SDS011;48512;48.552;9.380;2022-07-19T11:57:34;8.32;;;3.78;;
62463;SDS011;48512;48.552;9.380;2022-07-19T11:59:59;4.97;;;3.47;;
62463;SDS011;48512;48.552;9.380;2022-07-19T12:02:24;7.85;;;3.03;;
62463;SDS011;48512;48.552;9.380;2022-07-19T12:04:50;9.55;;;3.40;;
62463;SDS011;48512;48.552;9.380;2022-07-19T12:07:16;10.30;;;3.30;;
62463;SDS011;48512;48.552;9.380;2022-07-19T12:09:43;5.90;;;3.25;;
62463;SDS011;48512;48.552;9.380;2022-07-19T12:12:12;7.70;;;3.28;;
62463;SDS011;48512;48.552;9.380;2022-07-19T12:14:39;7.60;;;3.00;;
62463;SDS011;48512;48.552;9.380;2022-07-19T12:19:40;8.02;;;3.10;;
62463;SDS011;48512;48.552;9.380;2022-07-19T12:24:50;9.65;;;3.38;;
62463;SDS011;48512;48.552;9.380;2022-07-19T12:27:15;8.80;;;3.58;;
62463;SDS011;48512;48.552;9.380;2022-07-19T12:29:45;7.90;;;3.22;;
62463;SDS011;48512;48.552;9.380;2022-07-19T12:32:31;3.58;;;2.47;;
62463;SDS011;48512;48.552;9.380;2022-07-19T12:37:30;7.60;;;3.13;;
62463;SDS011;48512;48.552;9.380;2022-07-19T12:44:51;5.03;;;3.35;;
62463;SDS011;48512;48.552;9.380;2022-07-19T12:47:16;6.40;;;2.90;;
62463;SDS011;48512;48.552;9.380;2022-07-19T12:49:43;7.25;;;3.25;;
62463;SDS011;48512;48.552;9.380;2022-07-19T12:52:10;4.95;;;3.15;;
62463;SDS011;48512;48.552;9.380;2022-07-19T12:54:35;7.55;;;3.20;;
62463;SDS011;48512;48.552;9.380;2022-07-19T12:57:01;8.80;;;3.40;;
62463;SDS011;48512;48.552;9.380;2022-07-19T12:59:26;10.73;;;3.15;;
62463;SDS011;48512;48.552;9.380;2022-07-19T13:02:11;8.38;;;3.50;;
62463;SDS011;48512;48.552;9.380;2022-07-19T13:04:39;8.18;;;3.47;;
62463;SDS011;48512;48.552;9.380;2022-07-19T13:07:05;8.48;;;3.65;;
62463;SDS011;48512;48.552;9.380;2022-07-19T13:09:33;8.45;;;3.33;;
62463;SDS011;48512;48.552;9.380;2022-07-19T13:12:00;9.20;;;3.80;;
62463;SDS011;48512;48.552;9.380;2022-07-19T13:14:26;6.10;;;3.20;;
62463;SDS011;48512;48.552;9.380;2022-07-19T13:16:52;7.00;;;3.42;;
62463;SDS011;48512;48.552;9.380;2022-07-19T13:19:17;5.80;;;3.40;;
62463;SDS011;48512;48.552;9.380;2022-07-19T13:21:42;7.63;;;3.45;;
62463;SDS011;48512;48.552;9.380;2022-07-19T13:24:08;7.53;;;3.63;;
62463;SDS011;48512;48.552;9.380;2022-07-19T13:26:33;6.00;;;3.83;;
62463;SDS011;48512;48.552;9.380;2022-07-19T13:28:59;8.00;;;3.70;;
62463;SDS011;48512;48.552;9.380;2022-07-19T13:31:24;7.95;;;3.50;;
62463;SDS011;48512;48.552;9.380;2022-07-19T13:33:50;6.65;;;3.60;;
62463;SDS011;48512;48.552;9.380;2022-07-19T13:36:15;9.00;;;3.60;;
62463;SDS011;48512;48.552;9.380;2022-07-19T13:38:41;9.02;;;4.20;;
62463;SDS011;48512;48.552;9.380;2022-07-19T13:41:07;7.78;;;3.85;;
62463;SDS011;48512;48.552;9.380;2022-07-19T13:43:33;7.55;;;3.60;;
62463;SDS011;48512;48.552;9.380;2022-07-19T13:45:59;11.90;;;4.60;;
62463;SDS011;48512;48.552;9.380;2022-07-19T13:48:25;5.50;;;3.45;;
62463;SDS011;48512;48.552;9.380;2022-07-19T13:50:51;6.68;;;3.30;;
62463;SDS011;48512;48.552;9.380;2022-07-19T13:53:17;7.60;;;3.45;;
62463;SDS011;48512;48.552;9.380;2022-07-19T13:55:42;6.95;;;3.45;;
62463;SDS011;48512;48.552;9.380;2022-07-19T13:58:08;5.53;;;3.42;;
62463;SDS011;48512;48.552;9.380;2022-07-19T14:00:33;7.72;;;3.10;;
62463;SDS011;48512;48.552;9.380;2022-07-19T14:02:59;8.07;;;3.78;;
62463;SDS011;48512;48.552;9.380;2022-07-19T14:05:25;9.13;;;3.50;;
62463;SDS011;48512;48.552;9.380;2022-07-19T14:07:50;10.90;;;3.22;;
62463;SDS011;48512;48.552;9.380;2022-07-19T14:10:15;8.43;;;3.20;;
62463;SDS011;48512;48.552;9.380;2022-07-19T14:12:41;6.53;;;3.60;;
62463;SDS011;48512;48.552;9.380;2022-07-19T14:15:06;5.97;;;3.30;;
62463;SDS011;48512;48.552;9.380;2022-07-19T14:17:32;7.53;;;3.30;;
62463;SDS011;48512;48.552;9.380;2022-07-19T14:19:58;8.23;;;3.30;;
62463;SDS011;48512;48.552;9.380;2022-07-19T14:22:24;9.15;;;3.28;;
62463;SDS011;48512;48.552;9.380;2022-07-19T14:24:49;6.32;;;3.50;;
62463;SDS011;48512;48.552;9.380;2022-07-19T14:27:14;8.50;;;3.28;;
62463;SDS011;48512;48.552;9.380;2022-07-19T14:29:41;6.22;;;3.30;;
62463;SDS011;48512;48.552;9.380;2022-07-19T14:32:07;5.88;;;3.33;;
62463;SDS011;48512;48.552;9.380;2022-07-19T14:34:32;8.20;;;3.17;;
62463;SDS011;48512;48.552;9.380;2022-07-19T14:36:57;6.72;;;3.45;;
62463;SDS011;48512;48.552;9.380;2022-07-19T14:39:23;6.95;;;3.47;;
62463;SDS011;48512;48.552;9.380;2022-07-19T14:41:48;10.10;;;3.78;;
62463;SDS011;48512;48.552;9.380;2022-07-19T14:44:14;8.20;;;3.80;;
62463;SDS011;48512;48.552;9.380;2022-07-19T14:46:40;9.55;;;4.45;;
62463;SDS011;48512;48.552;9.380;2022-07-19T14:49:05;9.05;;;3.72;;
62463;SDS011;48512;48.552;9.380;2022-07-19T14:51:30;10.15;;;3.40;;
62463;SDS011;48512;48.552;9.380;2022-07-19T14:53:56;8.90;;;3.33;;
62463;SDS011;48512;48.552;9.380;2022-07-19T14:56:22;5.78;;;3.42;;
62463;SDS011;48512;48.552;9.380;2022-07-19T14:58:47;5.43;;;3.10;;
62463;SDS011;48512;48.552;9.380;2022-07-19T15:01:13;5.45;;;3.03;;
62463;SDS011;48512;48.552;9.380;2022-07-19T15:03:38;10.90;;;3.75;;
62463;SDS011;48512;48.552;9.380;2022-07-19T15:06:04;8.15;;;3.00;;
62463;SDS011;48512;48.552;9.380;2022-07-19T15:08:29;9.30;;;3.30;;
62463;SDS011;48512;48.552;9.380;2022-07-19T15:10:55;6.90;;;3.60;;
62463;SDS011;48512;48.552;9.380;2022-07-19T15:13:20;10.00;;;3.13;;
62463;SDS011;48512;48.552;9.380;2022-07-19T15:15:46;5.07;;;2.90;;
62463;SDS011;48512;48.552;9.380;2022-07-19T15:18:11;13.10;;;3.67;;
62463;SDS011;48512;48.552;9.380;2022-07-19T15:20:37;4.30;;;2.97;;
62463;SDS011;48512;48.552;9.380;2022-07-19T15:23:03;6.80;;;3.00;;